Wetterdaten: Woche 05.07.10 - 11.07.10 (KW27)
Datum Zeit Temp. A. Feuchte A. Luftdruck Regen Wind Richtung Taupunkt Windchill Windben
05.07.2010 00:00 19,1 C 88 % 1018,7 hPa 0,0 l/m 0,0 km/h NO 17,1 C 19,1 C 0,0 km/h
05.07.2010 01:00 18,9 C 90 % 1018,8 hPa 0,0 l/m 0,0 km/h O-NO 17,2 C 18,9 C 0,0 km/h
05.07.2010 02:00 18,2 C 91 % 1018,7 hPa 0,0 l/m 1,9 km/h O-NO 16,7 C 18,2 C 1,1 km/h
05.07.2010 03:00 18,1 C 92 % 1018,5 hPa 0,0 l/m 0,0 km/h N 16,8 C 18,1 C 0,0 km/h
05.07.2010 04:00 17,0 C 92 % 1018,4 hPa 0,0 l/m 0,0 km/h N-NO 15,7 C 17,0 C 0,0 km/h
05.07.2010 05:00 16,9 C 93 % 1018,8 hPa 0,0 l/m 0,0 km/h SO 15,8 C 16,9 C 0,0 km/h
05.07.2010 06:00 16,6 C 93 % 1018,6 hPa 0,0 l/m 1,9 km/h S-SO 15,5 C 16,6 C 1,1 km/h
05.07.2010 07:00 16,6 C 93 % 1018,9 hPa 0,0 l/m 0,0 km/h S-SO 15,5 C 16,6 C 0,0 km/h
05.07.2010 08:00 25,0 C 73 % 1019,3 hPa 0,0 l/m 0,0 km/h N-NO 19,8 C 25,0 C 0,0 km/h
05.07.2010 09:00 30,3 C 46 % 1019,2 hPa 0,0 l/m 0,0 km/h N-NO 17,4 C 30,3 C 0,0 km/h
05.07.2010 10:00 29,8 C 38 % 1019,4 hPa 0,0 l/m 6,5 km/h W-SW 13,9 C 29,8 C 3,6 km/h
05.07.2010 11:00 31,1 C 36 % 1019,3 hPa 0,0 l/m 0,0 km/h W-NW 14,2 C 31,1 C 0,0 km/h
05.07.2010 12:00 28,8 C 39 % 1019,3 hPa 0,0 l/m 8,4 km/h N-NO 13,4 C 28,5 C 4,7 km/h
05.07.2010 13:00 29,0 C 39 % 1018,7 hPa 0,0 l/m 3,9 km/h N-NW 13,6 C 29,0 C 2,2 km/h
05.07.2010 14:00 29,9 C 34 % 1018,6 hPa 0,0 l/m 3,2 km/h S-SW 12,3 C 29,9 C 1,8 km/h
05.07.2010 15:00 31,6 C 33 % 1018,3 hPa 0,0 l/m 5,2 km/h W-NW 13,3 C 31,6 C 2,9 km/h
05.07.2010 16:00 34,2 C 28 % 1017,9 hPa 0,0 l/m 3,2 km/h N-NO 13,0 C 34,2 C 1,8 km/h
05.07.2010 17:00 36,4 C 26 % 1017,6 hPa 0,0 l/m 0,0 km/h NO 13,8 C 36,4 C 0,0 km/h
05.07.2010 18:00 33,9 C 30 % 1017,6 hPa 0,0 l/m 0,0 km/h N-NO 13,9 C 33,9 C 0,0 km/h
05.07.2010 19:00 27,9 C 40 % 1017,8 hPa 0,0 l/m 0,0 km/h N-NO 13,0 C 27,9 C 0,0 km/h
05.07.2010 20:00 25,5 C 49 % 1017,8 hPa 0,0 l/m 0,0 km/h N-NO 14,0 C 25,5 C 0,0 km/h
05.07.2010 21:00 22,8 C 53 % 1018,3 hPa 0,0 l/m 0,0 km/h NO 12,7 C 22,8 C 0,0 km/h
05.07.2010 22:00 18,9 C 72 % 1018,6 hPa 0,0 l/m 0,0 km/h O 13,7 C 18,9 C 0,0 km/h
05.07.2010 23:00 18,8 C 74 % 1019,2 hPa 0,0 l/m 0,0 km/h O-SO 14,1 C 18,8 C 0,0 km/h
06.07.2010 00:00 17,1 C 79 % 1019,6 hPa 0,0 l/m 0,0 km/h O-SO 13,4 C 17,1 C 0,0 km/h
06.07.2010 01:00 16,7 C 82 % 1019,6 hPa 0,0 l/m 0,0 km/h SO 13,6 C 16,7 C 0,0 km/h
06.07.2010 02:00 16,5 C 83 % 1019,6 hPa 0,0 l/m 0,0 km/h SO 13,6 C 16,5 C 0,0 km/h
06.07.2010 03:00 15,9 C 85 % 1019,6 hPa 0,0 l/m 0,0 km/h O-SO 13,4 C 15,9 C 0,0 km/h
06.07.2010 04:00 15,6 C 86 % 1019,4 hPa 0,0 l/m 0,0 km/h SO 13,3 C 15,6 C 0,0 km/h
06.07.2010 05:00 15,7 C 87 % 1019,8 hPa 0,0 l/m 0,0 km/h O 13,5 C 15,7 C 0,0 km/h
06.07.2010 06:00 16,4 C 87 % 1020,1 hPa 0,0 l/m 0,0 km/h N-NO 14,2 C 16,4 C 0,0 km/h
06.07.2010 07:00 18,9 C 82 % 1020,5 hPa 0,0 l/m 0,0 km/h N-NO 15,8 C 18,9 C 0,0 km/h
06.07.2010 08:00 20,9 C 72 % 1021,2 hPa 0,0 l/m 0,0 km/h NO 15,7 C 20,9 C 0,0 km/h
06.07.2010 09:00 28,1 C 50 % 1021,4 hPa 0,0 l/m 0,0 km/h N 16,7 C 28,1 C 0,0 km/h
06.07.2010 10:00 25,3 C 51 % 1021,3 hPa 0,0 l/m 0,0 km/h NO 14,4 C 25,3 C 0,0 km/h
06.07.2010 11:00 27,3 C 42 % 1021,4 hPa 0,0 l/m 11,7 km/h NW 13,2 C 26,5 C 6,5 km/h
06.07.2010 12:00 26,9 C 41 % 1021,5 hPa 0,0 l/m 1,9 km/h N-NO 12,5 C 26,9 C 1,1 km/h
06.07.2010 13:00 25,9 C 44 % 1021,5 hPa 0,0 l/m 1,3 km/h N-NW 12,7 C 25,9 C 0,7 km/h
06.07.2010 14:00 27,8 C 38 % 1021,3 hPa 0,0 l/m 0,0 km/h N-NO 12,2 C 27,8 C 0,0 km/h
06.07.2010 15:00 28,4 C 34 % 1021,0 hPa 0,0 l/m 1,9 km/h NO 11,0 C 28,4 C 1,1 km/h
06.07.2010 16:00 31,8 C 29 % 1020,6 hPa 0,0 l/m 3,2 km/h N-NO 11,5 C 31,8 C 1,8 km/h
06.07.2010 17:00 30,9 C 30 % 1020,7 hPa 0,0 l/m 4,5 km/h NO 11,3 C 30,9 C 2,5 km/h
06.07.2010 18:00 28,7 C 31 % 1020,7 hPa 0,0 l/m 3,9 km/h N 9,9 C 28,7 C 2,2 km/h
06.07.2010 19:00 25,6 C 36 % 1020,6 hPa 0,0 l/m 0,0 km/h NO 9,4 C 25,6 C 0,0 km/h
06.07.2010 20:00 22,8 C 41 % 1020,6 hPa 0,0 l/m 0,0 km/h O 8,9 C 22,8 C 0,0 km/h
06.07.2010 21:00 18,1 C 61 % 1020,9 hPa 0,0 l/m 0,0 km/h O-NO 10,5 C 18,1 C 0,0 km/h
06.07.2010 22:00 15,1 C 71 % 1021,3 hPa 0,0 l/m 0,0 km/h O-SO 9,9 C 15,1 C 0,0 km/h
06.07.2010 23:00 14,4 C 74 % 1021,4 hPa 0,0 l/m 0,0 km/h O 9,8 C 14,4 C 0,0 km/h
07.07.2010 00:00 14,8 C 76 % 1021,5 hPa 0,0 l/m 0,0 km/h O 10,6 C 14,8 C 0,0 km/h
07.07.2010 01:00 14,3 C 75 % 1021,4 hPa 0,0 l/m 0,0 km/h O-NO 9,9 C 14,3 C 0,0 km/h
07.07.2010 02:00 13,4 C 77 % 1021,5 hPa 0,0 l/m 0,0 km/h S-SO 9,5 C 13,4 C 0,0 km/h
07.07.2010 03:00 12,8 C 79 % 1021,0 hPa 0,0 l/m 0,0 km/h O 9,2 C 12,8 C 0,0 km/h
07.07.2010 04:00 12,1 C 81 % 1020,9 hPa 0,0 l/m 0,0 km/h O 8,9 C 12,1 C 0,0 km/h
07.07.2010 05:00 11,8 C 82 % 1020,6 hPa 0,0 l/m 0,0 km/h NO 8,8 C 11,8 C 0,0 km/h
07.07.2010 06:00 11,4 C 84 % 1021,0 hPa 0,0 l/m 0,0 km/h O-NO 8,8 C 11,4 C 0,0 km/h
07.07.2010 07:00 13,7 C 81 % 1021,2 hPa 0,0 l/m 0,0 km/h S-SO 10,5 C 13,7 C 0,0 km/h
07.07.2010 08:00 25,0 C 52 % 1021,2 hPa 0,0 l/m 0,0 km/h N-NO 14,4 C 25,0 C 0,0 km/h
07.07.2010 09:00 28,4 C 41 % 1021,4 hPa 0,0 l/m 0,0 km/h W-NW 13,9 C 28,4 C 0,0 km/h
07.07.2010 10:00 28,8 C 40 % 1020,9 hPa 0,0 l/m 0,0 km/h N-NO 13,8 C 28,8 C 0,0 km/h
07.07.2010 11:00 30,3 C 34 % 1020,8 hPa 0,0 l/m 2,6 km/h N 12,7 C 30,3 C 1,4 km/h
07.07.2010 12:00 27,8 C 36 % 1020,7 hPa 0,0 l/m 22,0 km/h N 11,3 C 26,1 C 12,2 km/h
07.07.2010 13:00 29,0 C 39 % 1020,1 hPa 0,0 l/m 0,0 km/h NW 13,6 C 29,0 C 0,0 km/h
07.07.2010 14:00 29,6 C 37 % 1019,7 hPa 0,0 l/m 0,0 km/h N-NW 13,3 C 29,6 C 0,0 km/h
07.07.2010 15:00 31,1 C 34 % 1019,1 hPa 0,0 l/m 0,0 km/h N-NW 13,4 C 31,1 C 0,0 km/h
07.07.2010 16:00 33,8 C 28 % 1018,6 hPa 0,0 l/m 13,6 km/h NW 12,7 C 33,8 C 7,6 km/h
07.07.2010 17:00 34,5 C 27 % 1018,2 hPa 0,0 l/m 0,0 km/h N-NW 12,7 C 34,5 C 0,0 km/h
07.07.2010 18:00 34,3 C 26 % 1017,9 hPa 0,0 l/m 0,0 km/h NW 12,0 C 34,3 C 0,0 km/h
07.07.2010 19:00 30,4 C 32 % 1017,9 hPa 0,0 l/m 0,0 km/h W 11,8 C 30,4 C 0,0 km/h
07.07.2010 20:00 24,6 C 44 % 1017,8 hPa 0,0 l/m 0,0 km/h W-SW 11,5 C 24,6 C 0,0 km/h
07.07.2010 21:00 20,4 C 58 % 1018,2 hPa 0,0 l/m 0,0 km/h NO 11,9 C 20,4 C 0,0 km/h
07.07.2010 22:00 18,8 C 67 % 1018,7 hPa 0,0 l/m 0,0 km/h O-NO 12,5 C 18,8 C 0,0 km/h
07.07.2010 23:00 16,9 C 73 % 1018,7 hPa 0,0 l/m 0,0 km/h SO 12,0 C 16,9 C 0,0 km/h
08.07.2010 00:00 15,6 C 78 % 1018,5 hPa 0,0 l/m 0,0 km/h SO 11,8 C 15,6 C 0,0 km/h
08.07.2010 01:00 14,8 C 81 % 1018,4 hPa 0,0 l/m 0,0 km/h NO 11,6 C 14,8 C 0,0 km/h
08.07.2010 02:00 14,3 C 83 % 1018,4 hPa 0,0 l/m 0,0 km/h O-SO 11,5 C 14,3 C 0,0 km/h
08.07.2010 03:00 13,5 C 85 % 1018,5 hPa 0,0 l/m 0,0 km/h O-NO 11,0 C 13,5 C 0,0 km/h
08.07.2010 04:00 13,2 C 84 % 1018,2 hPa 0,0 l/m 0,0 km/h O 10,6 C 13,2 C 0,0 km/h
08.07.2010 05:00 11,9 C 87 % 1018,0 hPa 0,0 l/m 0,0 km/h NO 9,8 C 11,9 C 0,0 km/h
08.07.2010 06:00 12,5 C 86 % 1018,5 hPa 0,0 l/m 0,0 km/h O-SO 10,2 C 12,5 C 0,0 km/h
08.07.2010 07:00 15,4 C 81 % 1018,4 hPa 0,0 l/m 0,0 km/h W-NW 12,2 C 15,4 C 0,0 km/h
08.07.2010 08:00 27,1 C 50 % 1018,8 hPa 0,0 l/m 0,0 km/h O 15,8 C 27,1 C 0,0 km/h
08.07.2010 09:00 30,2 C 42 % 1018,7 hPa 0,0 l/m 0,0 km/h S 15,8 C 30,2 C 0,0 km/h
08.07.2010 10:00 31,3 C 37 % 1018,7 hPa 0,0 l/m 0,0 km/h W 14,8 C 31,3 C 0,0 km/h
08.07.2010 11:00 33,4 C 34 % 1018,7 hPa 0,0 l/m 0,0 km/h S-SO 15,4 C 33,4 C 0,0 km/h
08.07.2010 12:00 31,7 C 37 % 1018,6 hPa 0,0 l/m 0,0 km/h NO 15,2 C 31,7 C 0,0 km/h
08.07.2010 13:00 32,8 C 32 % 1018,5 hPa 0,0 l/m 0,0 km/h W 13,9 C 32,8 C 0,0 km/h
08.07.2010 14:00 34,1 C 31 % 1018,1 hPa 0,0 l/m 1,3 km/h S-SO 14,5 C 34,1 C 0,7 km/h
08.07.2010 15:00 36,2 C 30 % 1017,9 hPa 0,0 l/m 5,2 km/h S-SW 15,8 C 36,2 C 2,9 km/h
08.07.2010 16:00 39,5 C 25 % 1017,5 hPa 0,0 l/m 0,0 km/h SW 15,8 C 39,5 C 0,0 km/h
08.07.2010 17:00 40,4 C 22 % 1017,5 hPa 0,0 l/m 2,6 km/h W 14,5 C 40,4 C 1,4 km/h
08.07.2010 18:00 40,0 C 23 % 1017,3 hPa 0,0 l/m 0,0 km/h W 14,9 C 40,0 C 0,0 km/h
08.07.2010 19:00 36,1 C 29 % 1017,1 hPa 0,0 l/m 0,0 km/h NO 15,2 C 36,1 C 0,0 km/h
08.07.2010 20:00 28,6 C 46 % 1017,1 hPa 0,0 l/m 0,0 km/h NO 15,8 C 28,6 C 0,0 km/h
08.07.2010 21:00 24,1 C 57 % 1017,3 hPa 0,0 l/m 0,0 km/h SO 15,0 C 24,1 C 0,0 km/h
08.07.2010 22:00 20,3 C 69 % 1017,4 hPa 0,0 l/m 0,0 km/h NO 14,4 C 20,3 C 0,0 km/h
08.07.2010 23:00 19,9 C 69 % 1017,4 hPa 0,0 l/m 0,0 km/h SO 14,0 C 19,9 C 0,0 km/h
09.07.2010 00:00 18,8 C 72 % 1017,5 hPa 0,0 l/m 0,0 km/h SO 13,6 C 18,8 C 0,0 km/h
09.07.2010 01:00 18,6 C 73 % 1017,4 hPa 0,0 l/m 0,0 km/h NW 13,7 C 18,6 C 0,0 km/h
09.07.2010 02:00 17,9 C 74 % 1017,9 hPa 0,0 l/m 0,0 km/h NO 13,2 C 17,9 C 0,0 km/h
09.07.2010 03:00 16,5 C 79 % 1018,0 hPa 0,0 l/m 0,0 km/h O-SO 12,8 C 16,5 C 0,0 km/h
09.07.2010 04:00 15,9 C 80 % 1018,0 hPa 0,0 l/m 0,0 km/h SO 12,5 C 15,9 C 0,0 km/h
09.07.2010 05:00 15,1 C 84 % 1017,8 hPa 0,0 l/m 0,0 km/h O-SO 12,4 C 15,1 C 0,0 km/h
09.07.2010 06:00 15,5 C 83 % 1018,0 hPa 0,0 l/m 0,0 km/h SO 12,6 C 15,5 C 0,0 km/h
09.07.2010 07:00 17,9 C 80 % 1018,0 hPa 0,0 l/m 1,9 km/h N-NO 14,4 C 17,9 C 1,1 km/h
09.07.2010 08:00 29,4 C 48 % 1017,8 hPa 0,0 l/m 0,0 km/h N-NO 17,2 C 29,4 C 0,0 km/h
09.07.2010 09:00 31,7 C 40 % 1017,9 hPa 0,0 l/m 0,0 km/h W 16,4 C 31,7 C 0,0 km/h
09.07.2010 10:00 34,8 C 36 % 1017,8 hPa 0,0 l/m 0,0 km/h S 17,5 C 34,8 C 0,0 km/h
09.07.2010 11:00 35,8 C 36 % 1017,3 hPa 0,0 l/m 0,0 km/h N-NO 18,4 C 35,8 C 0,0 km/h
09.07.2010 12:00 34,2 C 35 % 1017,1 hPa 0,0 l/m 3,9 km/h SW 16,5 C 34,2 C 2,2 km/h
09.07.2010 13:00 35,2 C 32 % 1017,8 hPa 0,0 l/m 13,6 km/h NW 16,0 C 35,2 C 7,6 km/h
09.07.2010 14:00 36,8 C 32 % 1018,2 hPa 0,0 l/m 3,2 km/h N-NO 17,4 C 36,8 C 1,8 km/h
09.07.2010 15:00 37,8 C 26 % 1017,8 hPa 0,0 l/m 3,2 km/h N 14,9 C 37,8 C 1,8 km/h
09.07.2010 16:00 35,6 C 31 % 1017,3 hPa 0,0 l/m 6,5 km/h NO 15,8 C 35,6 C 3,6 km/h
09.07.2010 17:00 35,9 C 27 % 1016,9 hPa 0,0 l/m 0,0 km/h N-NO 13,9 C 35,9 C 0,0 km/h
09.07.2010 18:00 32,0 C 43 % 1016,7 hPa 0,0 l/m 0,0 km/h N 17,8 C 32,0 C 0,0 km/h
09.07.2010 19:00 32,2 C 44 % 1016,7 hPa 0,0 l/m 0,0 km/h NO 18,4 C 32,2 C 0,0 km/h
09.07.2010 20:00 28,1 C 54 % 1016,8 hPa 0,0 l/m 0,0 km/h O-SO 17,9 C 28,1 C 0,0 km/h
09.07.2010 21:00 24,7 C 62 % 1017,1 hPa 0,0 l/m 0,0 km/h NO 16,9 C 24,7 C 0,0 km/h
09.07.2010 22:00 22,9 C 69 % 1017,8 hPa 0,0 l/m 0,0 km/h NO 16,9 C 22,9 C 0,0 km/h
09.07.2010 23:00 21,4 C 74 % 1017,8 hPa 0,0 l/m 0,0 km/h N 16,6 C 21,4 C 0,0 km/h
10.07.2010 00:00 20,5 C 77 % 1018,0 hPa 0,0 l/m 0,0 km/h N-NO 16,3 C 20,5 C 0,0 km/h
10.07.2010 01:00 19,3 C 79 % 1017,9 hPa 0,0 l/m 0,0 km/h N-NO 15,6 C 19,3 C 0,0 km/h
10.07.2010 02:00 18,7 C 80 % 1018,3 hPa 0,0 l/m 0,0 km/h O-NO 15,2 C 18,7 C 0,0 km/h
10.07.2010 03:00 17,9 C 83 % 1018,3 hPa 0,0 l/m 0,0 km/h NO 15,0 C 17,9 C 0,0 km/h
10.07.2010 04:00 17,8 C 85 % 1018,0 hPa 0,0 l/m 0,0 km/h N-NO 15,2 C 17,8 C 0,0 km/h
10.07.2010 05:00 17,9 C 83 % 1018,1 hPa 0,0 l/m 0,0 km/h O-NO 15,0 C 17,9 C 0,0 km/h
10.07.2010 06:00 17,8 C 86 % 1018,0 hPa 0,0 l/m 0,0 km/h NO 15,4 C 17,8 C 0,0 km/h
10.07.2010 07:00 20,7 C 80 % 1017,8 hPa 0,0 l/m 0,0 km/h SO 17,1 C 20,7 C 0,0 km/h
10.07.2010 08:00 29,5 C 58 % 1017,5 hPa 0,0 l/m 0,0 km/h N-NO 20,3 C 29,5 C 0,0 km/h
10.07.2010 09:00 31,1 C 50 % 1018,0 hPa 0,0 l/m 0,0 km/h W 19,4 C 31,1 C 0,0 km/h
10.07.2010 10:00 33,9 C 42 % 1017,8 hPa 0,0 l/m 5,2 km/h W-NW 19,1 C 33,9 C 2,9 km/h
10.07.2010 11:00 36,9 C 38 % 1017,7 hPa 0,0 l/m 6,5 km/h NW 20,2 C 36,9 C 3,6 km/h
10.07.2010 12:00 34,9 C 38 % 1017,3 hPa 0,0 l/m 3,2 km/h W-NW 18,4 C 34,9 C 1,8 km/h
10.07.2010 13:00 36,9 C 34 % 1016,7 hPa 0,0 l/m 0,0 km/h NW 18,4 C 36,9 C 0,0 km/h
10.07.2010 14:00 37,7 C 35 % 1016,0 hPa 0,0 l/m 0,0 km/h NW 19,6 C 37,7 C 0,0 km/h
10.07.2010 15:00 38,9 C 34 % 1015,4 hPa 0,0 l/m 14,3 km/h NW 20,1 C 38,9 C 7,9 km/h
10.07.2010 16:00 41,6 C 31 % 1014,7 hPa 0,0 l/m 13,0 km/h NW 21,0 C 41,6 C 7,2 km/h
10.07.2010 17:00 41,6 C 30 % 1014,4 hPa 0,0 l/m 11,0 km/h W 20,4 C 41,6 C 6,1 km/h
10.07.2010 18:00 39,1 C 32 % 1014,4 hPa 0,0 l/m 7,8 km/h W 19,3 C 39,1 C 4,3 km/h
10.07.2010 19:00 32,9 C 43 % 1014,8 hPa 0,0 l/m 0,0 km/h O-NO 18,6 C 32,9 C 0,0 km/h
10.07.2010 20:00 30,1 C 56 % 1014,7 hPa 0,0 l/m 0,0 km/h O-NO 20,3 C 30,1 C 0,0 km/h
10.07.2010 21:00 28,5 C 55 % 1015,4 hPa 0,0 l/m 3,9 km/h SO 18,6 C 28,5 C 2,2 km/h
10.07.2010 22:00 21,9 C 81 % 1017,0 hPa 7,5 l/m 3,9 km/h N 18,5 C 21,9 C 2,2 km/h
10.07.2010 23:00 19,2 C 84 % 1017,6 hPa 3,2 l/m 0,0 km/h N 16,4 C 19,2 C 0,0 km/h
11.07.2010 00:00 19,1 C 88 % 1015,7 hPa 0,4 l/m 0,0 km/h O-SO 17,1 C 19,1 C 0,0 km/h
11.07.2010 01:00 19,4 C 89 % 1016,3 hPa 0,0 l/m 0,0 km/h SO 17,5 C 19,4 C 0,0 km/h
11.07.2010 02:00 19,2 C 91 % 1015,9 hPa 0,0 l/m 5,8 km/h O-SO 17,7 C 19,2 C 3,2 km/h
11.07.2010 03:00 18,8 C 91 % 1015,6 hPa 0,0 l/m 0,0 km/h O-NO 17,3 C 18,8 C 0,0 km/h
11.07.2010 04:00 18,8 C 92 % 1015,7 hPa 0,0 l/m 0,0 km/h O-NO 17,5 C 18,8 C 0,0 km/h
11.07.2010 05:00 18,7 C 92 % 1015,9 hPa 0,0 l/m 0,0 km/h O-SO 17,4 C 18,7 C 0,0 km/h
11.07.2010 06:00 18,8 C 93 % 1016,2 hPa 0,0 l/m 0,0 km/h SO 17,6 C 18,8 C 0,0 km/h
11.07.2010 07:00 20,5 C 92 % 1016,4 hPa 0,0 l/m 0,0 km/h SO 19,2 C 20,5 C 0,0 km/h
11.07.2010 08:00 22,9 C 87 % 1016,7 hPa 0,0 l/m 0,0 km/h SO 20,6 C 22,9 C 0,0 km/h
11.07.2010 09:00 30,3 C 60 % 1017,0 hPa 0,0 l/m 0,0 km/h SO 21,6 C 30,3 C 0,0 km/h
11.07.2010 10:00 29,9 C 56 % 1017,2 hPa 0,0 l/m 0,0 km/h S-SO 20,1 C 29,9 C 0,0 km/h
11.07.2010 11:00 29,8 C 56 % 1017,3 hPa 0,0 l/m 0,0 km/h S-SO 20,1 C 29,8 C 0,0 km/h
11.07.2010 12:00 33,1 C 48 % 1017,2 hPa 0,0 l/m 0,0 km/h SO 20,6 C 33,1 C 0,0 km/h
11.07.2010 13:00 34,6 C 47 % 1016,6 hPa 0,0 l/m 0,0 km/h NW 21,6 C 34,6 C 0,0 km/h
11.07.2010 14:00 35,2 C 41 % 1016,1 hPa 0,0 l/m 3,2 km/h N-NW 19,9 C 35,2 C 1,8 km/h
11.07.2010 15:00 35,9 C 40 % 1015,9 hPa 0,0 l/m 0,0 km/h SW 20,1 C 35,9 C 0,0 km/h
11.07.2010 16:00 38,5 C 36 % 1015,2 hPa 0,0 l/m 16,2 km/h W-NW 20,7 C 38,5 C 9,0 km/h
11.07.2010 17:00 39,6 C 33 % 1015,1 hPa 0,0 l/m 5,2 km/h N-NO 20,3 C 39,6 C 2,9 km/h
11.07.2010 18:00 37,4 C 37 % 1014,7 hPa 0,0 l/m 0,0 km/h NW 20,2 C 37,4 C 0,0 km/h
11.07.2010 19:00 33,3 C 43 % 1015,0 hPa 0,0 l/m 0,0 km/h NO 19,0 C 33,3 C 0,0 km/h
11.07.2010 20:00 28,9 C 60 % 1015,1 hPa 0,0 l/m 0,0 km/h NO 20,3 C 28,9 C 0,0 km/h
11.07.2010 21:00 25,4 C 70 % 1015,4 hPa 0,0 l/m 0,0 km/h O-SO 19,5 C 25,4 C 0,0 km/h
11.07.2010 22:00 22,9 C 77 % 1015,8 hPa 0,0 l/m 0,0 km/h O-NO 18,6 C 22,9 C 0,0 km/h
11.07.2010 23:00 21,9 C 82 % 1015,4 hPa 0,0 l/m 0,0 km/h NO 18,7 C 21,9 C 0,0 km/h
Min-Datum _ 07.07.10 08.07.10 10.07.10 - 05.07.10 - 07.07.10 07.07.10 05.07.10
_ Min-Zeit 06:30 17:30 17:30 - 00:30 - 06:30 06:30 00:30
Minimum _ 11,4 C 22 % 1014,4 hPa - 0,0 km/h - 8,8 C 11,4 C 0,0 km/h
Max-Datum _ 10.07.10 05.07.10 06.07.10 10.07.10 07.07.10 - 11.07.10 10.07.10 07.07.10
_ Max-Zeit 16:30 05:30 12:30 22:30 12:30 - 09:30 16:30 12:30
Maximum _ 41,6 C 93 % 1021,5 hPa 7,5 l/m 22,0 km/h
N
- 21,6 C 41,6 C 12,2 km/h
N
Durchschnitt _ 25,4 C 58 % 1018,2 hPa #11,0 l/m 1,4 km/h N-NO 15,1 C 25,4 C 0,8 km/h